»·PEaware :: TXA717 KFMN-KPRC

TXA717 :: KFMN-KPRC

FLIGHT INFORMATION

Flight Status: Arrived
Operator: Unknown
More flights by this operator :: More flights under this callsign
Pilot: Ty S. (2873)
Aircraft: BEECH AIRCRAFT PREMIER
(PRM1)
More flights by this aircraft type
Origin: KFMN Four Corners Regl
United States
Destination: KPRC Love
United States
More flights between these airports :: More routes between these airports
Route: +CHACO1 GUP INW V12 DRK
File this flight plan on PilotEdge
Remarks:
Altitude:
(Current/Filed)
30,000ft
Speed:
(Current/Filed)
420kts
Departed: 24-Jan-20 05:15 PM
Arrived: 24-Jan-20 06:03 PM
Distance/Time
Traveled:
240nm/0:48
Distance/Time
To Go:
Arrived

Flight Plot

Page will automatically refresh every two minutes.

Flight plan parsing failed; only flown route is shown


Map Options




Map Legend


Flown Route
Filed Route
Departure Airport
Arrival Airport
Navaid (VOR, NDB)
Fix

Horizontal Profiles

Position Reports

Time Latitude Longitude Heading Altitude Ground
Speed
24-Jan-20 16:07 36.739940 -108.223231 89 5510ft 0kts
24-Jan-20 16:08 36.739940 -108.223231 89 5510ft 0kts
24-Jan-20 16:09 36.739940 -108.223231 89 5510ft 0kts
24-Jan-20 16:10 36.739940 -108.223231 89 5510ft 0kts
24-Jan-20 16:11 36.739940 -108.223231 89 5510ft 0kts
24-Jan-20 16:12 36.739940 -108.223231 89 5510ft 0kts
24-Jan-20 16:13 36.739940 -108.223231 89 5510ft 0kts
24-Jan-20 16:14 36.739940 -108.223231 89 5510ft 0kts
24-Jan-20 16:15 36.739940 -108.223231 89 5510ft 0kts
24-Jan-20 16:16 36.739940 -108.223231 89 5510ft 0kts
24-Jan-20 16:17 36.739940 -108.223231 89 5510ft 0kts
24-Jan-20 16:18 36.739940 -108.223231 89 5510ft 0kts
24-Jan-20 16:19 36.739940 -108.223231 89 5510ft 0kts
24-Jan-20 16:20 36.739940 -108.223231 89 5510ft 0kts
24-Jan-20 16:21 36.739940 -108.223231 89 5510ft 0kts
24-Jan-20 16:22 36.739940 -108.223231 89 5510ft 0kts
24-Jan-20 16:23 36.739940 -108.223231 89 5510ft 0kts
24-Jan-20 16:24 36.739940 -108.223231 89 5510ft 0kts
24-Jan-20 16:25 36.739940 -108.223231 89 5510ft 0kts
24-Jan-20 16:26 36.739940 -108.223231 89 5510ft 0kts
24-Jan-20 16:27 36.739940 -108.223231 89 5510ft 0kts
24-Jan-20 16:28 36.739940 -108.223231 89 5510ft 0kts
24-Jan-20 16:29 36.739940 -108.223231 89 5510ft 0kts
24-Jan-20 16:30 36.739940 -108.223231 89 5510ft 0kts
24-Jan-20 16:31 36.739940 -108.223231 89 5510ft 0kts
24-Jan-20 16:32 36.739940 -108.223231 89 5510ft 0kts
24-Jan-20 16:33 36.739940 -108.223231 89 5510ft 0kts
24-Jan-20 16:34 36.739940 -108.223231 89 5510ft 0kts
24-Jan-20 16:35 36.739940 -108.223231 89 5510ft 0kts
24-Jan-20 16:36 36.739940 -108.223231 89 5510ft 0kts
24-Jan-20 16:37 36.739940 -108.223231 89 5510ft 0kts
24-Jan-20 16:38 36.739940 -108.223231 89 5510ft 0kts
24-Jan-20 16:39 36.739940 -108.223231 89 5510ft 0kts
24-Jan-20 16:40 36.739940 -108.223231 89 5510ft 0kts
24-Jan-20 16:41 36.739940 -108.223231 89 5510ft 0kts
24-Jan-20 16:49 36.739940 -108.223231 89 5510ft 0kts
24-Jan-20 16:50 36.739940 -108.223231 89 5510ft 0kts
24-Jan-20 16:51 36.739940 -108.223231 89 5510ft 0kts
24-Jan-20 16:52 36.739940 -108.223231 89 5510ft 0kts
24-Jan-20 16:53 36.739940 -108.223231 89 5510ft 0kts
24-Jan-20 16:54 36.739940 -108.223231 89 5510ft 0kts
24-Jan-20 16:55 36.739940 -108.223231 89 5510ft 0kts
24-Jan-20 16:56 36.739940 -108.223231 89 5510ft 0kts
24-Jan-20 16:57 36.739940 -108.223231 89 5510ft 0kts
24-Jan-20 16:58 36.739940 -108.223231 89 5510ft 0kts
24-Jan-20 16:59 36.739940 -108.223231 89 5510ft 0kts
24-Jan-20 17:00 36.739940 -108.223231 89 5510ft 0kts
24-Jan-20 17:01 36.739940 -108.223231 89 5510ft 0kts
24-Jan-20 17:02 36.739940 -108.223231 89 5510ft 0kts
24-Jan-20 17:04 36.739940 -108.223231 89 5510ft 0kts
24-Jan-20 17:05 36.739940 -108.223231 89 5510ft 0kts
24-Jan-20 17:06 36.739940 -108.223231 89 5510ft 0kts
24-Jan-20 17:07 36.739940 -108.223231 89 5510ft 0kts
24-Jan-20 17:08 36.739940 -108.223231 89 5510ft 0kts
24-Jan-20 17:09 36.739940 -108.223231 89 5510ft 0kts
24-Jan-20 17:10 36.739940 -108.223231 89 5510ft 0kts
24-Jan-20 17:11 36.739966 -108.222965 81 5510ft 1kts
24-Jan-20 17:12 36.740512 -108.223567 6 5510ft 8kts
24-Jan-20 17:13 36.740819 -108.218597 88 5510ft 0kts
24-Jan-20 17:14 36.740821 -108.218512 87 5510ft 4kts
24-Jan-20 17:15 36.741592 -108.218881 268 5510ft 47kts
24-Jan-20 17:16 36.733502 -108.259821 205 7115ft 143kts
24-Jan-20 17:17 36.692289 -108.229874 137 8250ft 232kts
24-Jan-20 17:18 36.634587 -108.180861 177 10102ft 258kts
24-Jan-20 17:19 36.568169 -108.210998 209 12266ft 260kts
24-Jan-20 17:20 36.502138 -108.251164 210 14288ft 265kts
24-Jan-20 17:21 36.435352 -108.291854 211 16099ft 270kts
24-Jan-20 17:22 36.367095 -108.333711 211 17866ft 276kts
24-Jan-20 17:23 36.297824 -108.376095 212 19402ft 280kts
24-Jan-20 17:23 36.239213 -108.411872 212 20567ft 283kts
24-Jan-20 17:25 36.155595 -108.462843 213 22057ft 287kts
24-Jan-20 17:25 36.095449 -108.499431 213 23008ft 291kts
24-Jan-20 17:26 36.021972 -108.544016 213 24674ft 295kts
24-Jan-20 17:27 35.947480 -108.589163 214 26164ft 300kts
24-Jan-20 17:28 35.874308 -108.633406 214 27498ft 304kts
24-Jan-20 17:29 35.798987 -108.678833 214 28742ft 308kts
24-Jan-20 17:30 35.721566 -108.725441 214 29947ft 312kts
24-Jan-20 17:31 35.639832 -108.774660 213 30127ft 342kts
24-Jan-20 17:32 35.550889 -108.827925 213 30125ft 369kts
24-Jan-20 17:33 35.472638 -108.904423 249 30130ft 363kts
24-Jan-20 17:34 35.444459 -109.025187 256 30119ft 373kts
24-Jan-20 17:35 35.418349 -109.150018 256 30117ft 381kts
24-Jan-20 17:36 35.391480 -109.278005 256 30116ft 388kts
24-Jan-20 17:37 35.364233 -109.407223 256 30114ft 391kts
24-Jan-20 17:38 35.336627 -109.537342 256 30113ft 393kts
24-Jan-20 17:39 35.308787 -109.667858 255 30120ft 394kts
24-Jan-20 17:40 35.280685 -109.798735 255 30126ft 396kts
24-Jan-20 17:41 35.252508 -109.929268 256 30134ft 396kts
24-Jan-20 17:42 35.224035 -110.060477 256 30130ft 397kts
24-Jan-20 17:43 35.195442 -110.191398 256 30125ft 397kts
24-Jan-20 17:44 35.166754 -110.322134 255 30106ft 397kts
24-Jan-20 17:45 35.138007 -110.452355 256 30104ft 397kts
24-Jan-20 17:46 35.109198 -110.582150 256 30102ft 396kts
24-Jan-20 17:47 35.080161 -110.712254 255 30112ft 397kts
24-Jan-20 17:48 35.051798 -110.842891 256 29689ft 398kts
24-Jan-20 17:49 35.024845 -110.972894 257 27681ft 394kts
24-Jan-20 17:50 34.997814 -111.103540 258 25679ft 400kts
24-Jan-20 17:51 34.969937 -111.237430 258 23818ft 410kts
24-Jan-20 17:52 34.941451 -111.373148 258 21818ft 415kts
24-Jan-20 17:53 34.912511 -111.510168 258 19797ft 410kts
24-Jan-20 17:54 34.885228 -111.638670 258 17828ft 397kts
24-Jan-20 17:55 34.858129 -111.765643 257 15826ft 386kts
24-Jan-20 17:56 34.831011 -111.891889 257 14042ft 382kts
24-Jan-20 17:57 34.804254 -112.015675 257 13998ft 371kts
24-Jan-20 17:58 34.778279 -112.135185 257 14031ft 356kts
24-Jan-20 17:59 34.753999 -112.246388 257 12423ft 310kts
24-Jan-20 18:00 34.733076 -112.339615 245 7553ft 297kts
24-Jan-20 18:01 34.679866 -112.392094 220 5888ft 197kts
24-Jan-20 18:02 34.650697 -112.423480 220 5048ft 27kts
24-Jan-20 18:03 34.648932 -112.423638 226 5048ft 14kts
24-Jan-20 18:04 34.646773 -112.424576 275 5048ft 0kts
24-Jan-20 18:05 34.646774 -112.424578 275 5048ft 0kts
24-Jan-20 18:06 34.646774 -112.424578 275 5048ft 0kts
24-Jan-20 18:07 34.646774 -112.424578 275 5048ft 0kts
24-Jan-20 18:08 34.646774 -112.424578 275 5048ft 0kts
24-Jan-20 18:09 34.646774 -112.424578 275 5048ft 0kts
24-Jan-20 18:10 34.646774 -112.424578 275 5048ft 0kts
24-Jan-20 18:11 34.646774 -112.424578 275 5048ft 0kts
24-Jan-20 18:12 34.646774 -112.424578 275 5048ft 0kts
24-Jan-20 18:13 34.646774 -112.424578 275 5048ft 0kts
24-Jan-20 18:15 34.646774 -112.424578 275 5048ft 0kts
24-Jan-20 18:15 34.646774 -112.424578 275 5048ft 0kts
24-Jan-20 18:16 34.646774 -112.424578 275 5048ft 0kts

Navigation Log

Ident Type
Flight plan parsing failed, navigation log unavailable